createdAt,value
2022-09-12T00:01:28.223Z,0.90
2022-09-12T00:03:58.302Z,0.90
2022-09-12T00:06:33.765Z,0.90
2022-09-12T00:09:02.664Z,1.00
2022-09-12T00:11:30.311Z,0.90
2022-09-12T00:13:59.110Z,0.80
2022-09-12T00:16:27.513Z,0.80
2022-09-12T00:18:54.580Z,0.70
2022-09-12T00:21:21.982Z,0.70
2022-09-12T00:23:51.692Z,1.00
2022-09-12T00:26:19.267Z,1.30
2022-09-12T00:28:46.675Z,1.00
2022-09-12T00:31:15.851Z,1.10
2022-09-12T00:33:43.157Z,0.90
2022-09-12T00:36:21.608Z,1.00
2022-09-12T00:38:49.540Z,1.30
2022-09-12T00:41:28.298Z,1.00
2022-09-12T00:43:58.593Z,0.80
2022-09-12T00:46:36.363Z,1.10
2022-09-12T00:49:06.243Z,1.10
2022-09-12T00:51:33.966Z,1.10
2022-09-12T00:54:02.405Z,0.90
2022-09-12T00:56:29.307Z,0.90
2022-09-12T00:59:00.738Z,1.00
2022-09-12T01:01:32.547Z,0.90
2022-09-12T01:04:00.772Z,1.20
2022-09-12T01:06:29.661Z,1.00
2022-09-12T01:08:56.753Z,0.80
2022-09-12T01:11:23.755Z,1.20
2022-09-12T01:13:50.819Z,0.90
2022-09-12T01:16:20.243Z,0.80
2022-09-12T01:19:06.297Z,1.20
2022-09-12T01:21:43.380Z,0.90
2022-09-12T01:24:19.437Z,0.90
2022-09-12T01:27:00.410Z,0.80
2022-09-12T01:29:46.404Z,1.00
2022-09-12T01:32:13.680Z,1.50
2022-09-12T01:35:09.173Z,0.90
2022-09-12T01:37:49.224Z,0.80
2022-09-12T01:40:29.176Z,1.20
2022-09-12T01:43:30.947Z,1.00
2022-09-12T01:46:09.515Z,0.70
2022-09-12T01:48:38.824Z,1.00
2022-09-12T01:51:18.387Z,1.00
2022-09-12T01:53:48.540Z,0.80
2022-09-12T01:56:22.179Z,0.80
2022-09-12T01:59:01.549Z,0.80
2022-09-12T02:01:32.027Z,1.20
2022-09-12T02:04:11.493Z,0.90
2022-09-12T02:06:44.704Z,0.80
2022-09-12T02:09:16.075Z,1.10
2022-09-12T02:11:43.510Z,1.00
2022-09-12T02:14:32.473Z,0.90
2022-09-12T02:17:02.898Z,0.90
2022-09-12T02:19:33.119Z,1.00
2022-09-12T02:22:00.993Z,0.90
2022-09-12T02:24:33.970Z,1.00
2022-09-12T02:29:32.267Z,1.00
2022-09-12T02:32:00.749Z,1.30
2022-09-12T02:34:51.551Z,1.00
2022-09-12T02:37:38.159Z,0.90
2022-09-12T02:40:07.203Z,1.00
2022-09-12T02:42:36.492Z,1.10
2022-09-12T02:45:03.815Z,1.00
2022-09-12T02:47:35.568Z,0.80
2022-09-12T02:50:02.666Z,1.00
2022-09-12T02:52:31.911Z,1.10
2022-09-12T02:54:59.162Z,1.30
2022-09-12T02:57:31.020Z,0.70
2022-09-12T02:59:59.708Z,1.20
2022-09-12T03:02:55.360Z,0.90
2022-09-12T03:05:28.721Z,0.90
2022-09-12T03:08:26.079Z,1.10
2022-09-12T03:11:09.402Z,0.90
2022-09-12T03:16:52.240Z,1.00
2022-09-12T03:20:40.081Z,0.90
2022-09-12T03:23:16.453Z,1.10
2022-09-12T03:25:50.251Z,1.00
2022-09-12T03:28:17.960Z,1.20
2022-09-12T03:30:49.224Z,1.20
2022-09-12T03:33:18.256Z,1.10
2022-09-12T03:35:47.825Z,1.10
2022-09-12T03:38:15.322Z,0.90
2022-09-12T03:40:42.811Z,1.00
2022-09-12T03:43:12.382Z,1.00
2022-09-12T03:45:39.494Z,1.30
2022-09-12T03:48:06.684Z,1.40
2022-09-12T03:50:34.152Z,1.30
2022-09-12T03:53:02.106Z,1.30
2022-09-12T03:55:29.567Z,1.10
2022-09-12T03:57:56.753Z,1.30
2022-09-12T04:00:23.863Z,1.40
2022-09-12T04:02:56.340Z,1.00
2022-09-12T04:05:24.408Z,1.20
2022-09-12T04:07:54.018Z,1.30
2022-09-12T04:10:21.164Z,1.20
2022-09-12T04:12:48.316Z,1.50
2022-09-12T04:15:15.467Z,1.20
2022-09-12T04:17:42.429Z,0.90
2022-09-12T04:20:10.075Z,1.50
2022-09-12T04:22:37.127Z,1.20
2022-09-12T04:25:04.883Z,1.30
2022-09-12T04:27:31.935Z,1.50
2022-09-12T04:30:00.375Z,1.20
2022-09-12T04:32:27.457Z,1.00
2022-09-12T04:34:54.372Z,1.10
2022-09-12T04:37:22.370Z,1.60
2022-09-12T04:39:49.985Z,1.20
2022-09-12T04:42:17.185Z,1.40
2022-09-12T04:44:44.232Z,1.30
2022-09-12T04:47:11.293Z,1.10
2022-09-12T04:49:38.327Z,1.40
2022-09-12T04:52:05.578Z,1.30
2022-09-12T04:54:32.935Z,1.20
2022-09-12T04:57:00.284Z,1.50
2022-09-12T04:59:28.056Z,1.20
2022-09-12T05:01:57.476Z,1.30
2022-09-12T05:04:24.600Z,1.20
2022-09-12T05:06:51.852Z,1.30
2022-09-12T05:09:19.103Z,1.20
2022-09-12T05:14:34.026Z,1.20
2022-09-12T05:17:02.059Z,1.50
2022-09-12T05:19:30.484Z,1.60
2022-09-12T05:21:57.711Z,4.30
2022-09-12T05:24:25.065Z,4.10
2022-09-12T05:26:52.109Z,2.40
2022-09-12T05:29:20.271Z,1.50
2022-09-12T05:31:51.409Z,1.60
2022-09-12T05:34:19.276Z,1.70
2022-09-12T05:36:46.320Z,1.20
2022-09-12T05:39:13.585Z,1.30
2022-09-12T05:41:40.517Z,1.30
2022-09-12T05:44:10.947Z,1.50
2022-09-12T05:46:39.344Z,1.10
2022-09-12T05:49:08.006Z,1.40
2022-09-12T05:51:36.999Z,1.00
2022-09-12T05:54:05.013Z,1.00
2022-09-12T05:56:33.606Z,1.00
2022-09-12T05:59:03.164Z,1.10
2022-09-12T06:01:31.282Z,0.90
2022-09-12T06:04:02.272Z,1.20
2022-09-12T06:06:30.245Z,0.80
2022-09-12T06:08:59.368Z,1.10
2022-09-12T06:11:27.720Z,0.90
2022-09-12T06:13:56.098Z,1.00
2022-09-12T06:16:26.126Z,1.30
2022-09-12T06:18:58.074Z,1.10
2022-09-12T06:21:26.637Z,1.00
2022-09-12T06:23:54.623Z,1.10
2022-09-12T06:26:23.716Z,1.30
2022-09-12T06:28:50.866Z,0.90
2022-09-12T06:31:19.858Z,1.30
2022-09-12T06:34:05.981Z,1.00
2022-09-12T06:36:35.010Z,0.90
2022-09-12T06:39:07.834Z,1.20
2022-09-12T06:41:34.900Z,1.30
2022-09-12T06:44:02.383Z,1.00
2022-09-12T06:46:29.593Z,1.00
2022-09-12T06:48:57.266Z,1.00
2022-09-12T06:51:24.803Z,0.90
2022-09-12T06:53:52.570Z,1.00
2022-09-12T06:56:20.539Z,0.70
2022-09-12T06:58:51.064Z,1.10
2022-09-12T07:01:20.129Z,0.90
2022-09-12T07:03:51.304Z,1.00
2022-09-12T07:06:20.091Z,1.10
2022-09-12T07:08:47.371Z,0.80
2022-09-12T07:11:20.538Z,1.00
2022-09-12T07:16:19.455Z,0.80
2022-09-12T07:18:54.560Z,1.10
2022-09-12T07:21:21.737Z,0.70
2022-09-12T07:23:49.292Z,0.60
2022-09-12T07:26:16.651Z,0.90
2022-09-12T07:28:43.790Z,0.70
2022-09-12T07:31:16.250Z,1.00
2022-09-12T07:33:43.743Z,0.80
2022-09-12T07:36:12.831Z,1.20
2022-09-12T07:38:40.071Z,0.70
2022-09-12T07:41:29.341Z,1.50
2022-09-12T07:43:58.428Z,1.20
2022-09-12T07:46:26.405Z,1.80
2022-09-12T07:48:58.269Z,1.00
2022-09-12T07:51:26.024Z,1.10
2022-09-12T07:53:52.936Z,0.90
2022-09-12T07:56:20.226Z,1.20
2022-09-12T07:58:47.404Z,1.10
2022-09-12T08:01:16.422Z,1.00
2022-09-12T08:03:44.781Z,0.90
2022-09-12T08:06:14.347Z,1.20
2022-09-12T08:08:41.505Z,0.80
2022-09-12T08:11:10.235Z,0.70
2022-09-12T08:13:38.402Z,1.10
2022-09-12T08:16:12.173Z,0.80
2022-09-12T08:18:46.478Z,0.70
2022-09-12T08:21:17.942Z,0.70
2022-09-12T08:23:45.284Z,0.90
2022-09-12T08:26:15.712Z,0.70
2022-09-12T08:28:45.775Z,1.00
2022-09-12T08:31:14.643Z,1.00
2022-09-12T08:33:41.847Z,1.10
2022-09-12T08:36:15.779Z,1.00
2022-09-12T08:38:44.257Z,1.20
2022-09-12T08:41:35.200Z,0.90
2022-09-12T08:44:20.783Z,1.00
2022-09-12T08:46:52.051Z,0.80
2022-09-12T08:49:38.084Z,0.90
2022-09-12T08:52:09.964Z,0.80
2022-09-12T08:54:37.609Z,0.80
2022-09-12T08:57:12.131Z,1.10
2022-09-12T08:59:41.566Z,0.80
2022-09-12T09:02:34.960Z,1.00
2022-09-12T09:08:05.344Z,1.00
2022-09-12T09:10:40.086Z,1.10
2022-09-12T09:13:39.274Z,0.80
2022-09-12T09:16:14.329Z,0.80
2022-09-12T09:18:41.452Z,1.60
2022-09-12T09:21:24.188Z,0.90
2022-09-12T09:23:55.754Z,1.10
2022-09-12T09:33:05.791Z,0.90
2022-09-12T09:36:26.132Z,0.80
2022-09-12T09:39:03.231Z,0.70
2022-09-12T09:41:43.181Z,0.90
2022-09-12T09:44:18.922Z,1.00
2022-09-12T09:46:45.972Z,1.40
2022-09-12T09:49:15.477Z,1.30
2022-09-12T09:51:42.523Z,0.80
2022-09-12T09:54:22.985Z,0.60
2022-09-12T09:56:50.439Z,0.80
2022-09-12T09:59:34.076Z,0.90
2022-09-12T10:02:13.991Z,0.70
2022-09-12T10:04:42.201Z,0.70
2022-09-12T10:07:18.438Z,0.80
2022-09-12T10:10:03.530Z,1.10
2022-09-12T10:12:30.601Z,0.90
2022-09-12T10:15:02.639Z,0.50
2022-09-12T10:17:39.944Z,0.50
2022-09-12T10:20:31.870Z,0.40
2022-09-12T10:23:02.839Z,0.40
2022-09-12T10:25:29.950Z,0.80
2022-09-12T10:27:58.754Z,0.80
2022-09-12T10:30:28.661Z,0.50
2022-09-12T10:33:06.627Z,0.50
2022-09-12T10:35:44.045Z,0.50
2022-09-12T10:38:37.510Z,0.50
2022-09-12T10:43:33.963Z,0.80
2022-09-12T10:46:25.382Z,0.40
2022-09-12T10:49:12.005Z,0.60
2022-09-12T10:51:39.037Z,0.50
2022-09-12T10:54:08.325Z,0.40
2022-09-12T10:57:08.783Z,0.90
2022-09-12T10:59:58.561Z,4.30
2022-09-12T11:02:44.371Z,1.10
2022-09-12T11:05:14.243Z,0.90
2022-09-12T11:07:53.272Z,1.30
2022-09-12T11:10:27.183Z,1.00
2022-09-12T11:12:57.197Z,1.10
2022-09-12T11:15:43.733Z,0.90
2022-09-12T11:18:29.622Z,1.20
2022-09-12T11:21:05.643Z,2.80
2022-09-12T11:23:35.877Z,1.40
2022-09-12T11:26:19.606Z,0.50
2022-09-12T11:29:12.967Z,0.40
2022-09-12T11:31:50.057Z,0.60
2022-09-12T11:34:23.547Z,0.60
2022-09-12T11:37:23.670Z,0.90
2022-09-12T11:39:55.213Z,0.40
2022-09-12T11:42:26.881Z,0.40
2022-09-12T11:45:00.275Z,1.10
2022-09-12T11:47:27.425Z,0.30
2022-09-12T11:49:54.573Z,0.30
2022-09-12T11:52:25.723Z,0.50
2022-09-12T11:54:53.855Z,0.40
2022-09-12T11:57:31.381Z,0.50
2022-09-12T12:00:08.925Z,0.40
2022-09-12T12:02:56.409Z,0.70
2022-09-12T12:05:34.915Z,0.20
2022-09-12T12:08:02.982Z,0.20
2022-09-12T12:11:00.246Z,0.30
2022-09-12T12:13:46.643Z,0.20
2022-09-12T12:16:27.043Z,0.30
2022-09-12T12:18:56.107Z,0.20
2022-09-12T12:21:32.264Z,0.30
2022-09-12T12:24:26.378Z,0.40
2022-09-12T12:26:53.492Z,0.30
2022-09-12T12:29:20.542Z,0.90
2022-09-12T12:32:00.221Z,0.30
2022-09-12T12:34:44.533Z,0.30
2022-09-12T12:37:21.145Z,0.30
2022-09-12T12:39:48.631Z,0.50
2022-09-12T12:42:44.898Z,0.20
2022-09-12T12:45:18.806Z,0.50
2022-09-12T12:47:55.181Z,0.40
2022-09-12T12:50:24.026Z,0.50
2022-09-12T12:52:59.197Z,0.50
2022-09-12T12:55:45.915Z,0.50
2022-09-12T12:58:28.226Z,0.40
2022-09-12T13:01:10.167Z,0.50
2022-09-12T13:03:37.555Z,0.60
2022-09-12T13:06:10.030Z,0.60
2022-09-12T13:08:39.638Z,0.50
2022-09-12T13:11:12.440Z,0.60
2022-09-12T13:13:50.119Z,0.40
2022-09-12T13:16:57.459Z,0.30
2022-09-12T13:19:29.496Z,0.50
2022-09-12T13:21:57.142Z,0.40
2022-09-12T13:24:24.091Z,0.40
2022-09-12T13:26:51.133Z,0.40
2022-09-12T13:29:23.911Z,0.40
2022-09-12T13:31:59.286Z,0.40
2022-09-12T13:34:32.339Z,0.50
2022-09-12T13:37:02.561Z,0.40
2022-09-12T13:39:50.618Z,0.20
2022-09-12T13:42:50.414Z,0.40
2022-09-12T13:45:25.246Z,0.50
2022-09-12T13:47:58.907Z,0.40
2022-09-12T13:51:00.145Z,0.30
2022-09-12T13:53:51.713Z,0.20
2022-09-12T13:56:19.478Z,0.30
2022-09-12T13:58:57.282Z,0.20
2022-09-12T14:01:25.603Z,0.30
2022-09-12T14:04:12.369Z,0.30
2022-09-12T14:06:49.892Z,0.30
2022-09-12T14:09:31.042Z,0.20
2022-09-12T14:11:58.425Z,0.30
2022-09-12T14:14:32.300Z,0.50
2022-09-12T14:17:00.732Z,0.30
2022-09-12T14:19:30.485Z,0.30
2022-09-12T14:21:57.838Z,0.30
2022-09-12T14:24:24.899Z,0.30
2022-09-12T14:26:54.589Z,0.50
2022-09-12T14:29:22.770Z,0.40
2022-09-12T14:32:03.241Z,0.50
2022-09-12T14:34:33.350Z,0.40
2022-09-12T14:37:00.400Z,0.50
2022-09-12T14:39:34.306Z,1.00
2022-09-12T14:42:21.631Z,0.80
2022-09-12T14:45:06.697Z,0.60
2022-09-12T14:47:39.802Z,0.50
2022-09-12T14:50:21.754Z,0.50
2022-09-12T14:53:02.909Z,0.60
2022-09-12T14:55:31.237Z,0.60
2022-09-12T14:58:37.505Z,0.40
2022-09-12T15:01:07.607Z,0.50
2022-09-12T15:03:49.579Z,0.60
2022-09-12T15:06:38.702Z,0.50
2022-09-12T15:09:07.683Z,0.50
2022-09-12T15:11:39.747Z,0.70
2022-09-12T15:14:16.209Z,0.80
2022-09-12T15:16:43.461Z,1.00
2022-09-12T15:19:10.819Z,0.50
2022-09-12T15:21:37.864Z,1.00
2022-09-12T15:24:07.264Z,0.70
2022-09-12T15:26:38.573Z,0.60
2022-09-12T15:29:09.141Z,0.70
2022-09-12T15:31:36.285Z,0.90
2022-09-12T15:34:03.990Z,1.00
2022-09-12T15:37:50.182Z,0.60
2022-09-12T15:42:57.560Z,0.50
2022-09-12T15:45:29.543Z,0.70
2022-09-12T15:47:56.773Z,0.50
2022-09-12T15:50:24.129Z,0.50
2022-09-12T15:52:54.451Z,0.50
2022-09-12T15:55:23.341Z,0.50
2022-09-12T15:57:50.701Z,0.50
2022-09-12T16:00:18.155Z,0.40
2022-09-12T16:02:48.113Z,0.70
2022-09-12T16:05:20.991Z,0.70
2022-09-12T16:10:20.142Z,0.60
2022-09-12T16:12:49.775Z,0.40
2022-09-12T16:15:19.080Z,0.90
2022-09-12T16:17:46.323Z,0.60
2022-09-12T16:20:25.570Z,0.70
2022-09-12T16:22:52.934Z,0.50
2022-09-12T16:25:19.972Z,0.70
2022-09-12T16:27:47.185Z,0.50
2022-09-12T16:30:18.661Z,0.90
2022-09-12T16:32:50.400Z,0.50
2022-09-12T16:35:17.672Z,0.50
2022-09-12T16:37:44.826Z,0.50
2022-09-12T16:40:12.653Z,0.70
2022-09-12T16:42:43.550Z,0.80
2022-09-12T16:45:12.055Z,0.80
2022-09-12T16:47:43.896Z,0.90
2022-09-12T16:50:13.167Z,1.00
2022-09-12T16:52:45.538Z,1.10
2022-09-12T16:55:12.642Z,1.40
2022-09-12T16:57:39.634Z,1.20
2022-09-12T17:00:07.904Z,0.90
2022-09-12T17:02:37.469Z,1.20
2022-09-12T17:05:05.081Z,1.00
2022-09-12T17:07:36.957Z,1.00
2022-09-12T17:10:04.961Z,0.70
2022-09-12T17:12:32.561Z,0.80
2022-09-12T17:15:02.786Z,0.90
2022-09-12T17:17:29.856Z,0.70
2022-09-12T17:19:56.874Z,0.90
2022-09-12T17:22:24.011Z,0.80
2022-09-12T17:24:51.173Z,0.70
2022-09-12T17:27:18.321Z,0.60
2022-09-12T17:29:45.370Z,0.60
2022-09-12T17:32:16.844Z,1.00
2022-09-12T17:34:44.685Z,0.90
2022-09-12T17:37:11.593Z,0.40
2022-09-12T17:39:38.711Z,0.50
2022-09-12T17:42:08.154Z,0.70
2022-09-12T17:44:36.165Z,0.80
2022-09-12T17:47:05.655Z,0.60
2022-09-12T17:49:33.654Z,0.60
2022-09-12T17:52:02.312Z,0.60
2022-09-12T17:54:29.379Z,0.70
2022-09-12T17:56:56.712Z,0.90
2022-09-12T17:59:25.036Z,1.00
2022-09-12T18:02:10.914Z,0.90
2022-09-12T18:04:48.373Z,0.60
2022-09-12T18:07:18.384Z,0.50
2022-09-12T18:09:48.093Z,0.80
2022-09-12T18:12:15.654Z,0.90
2022-09-12T18:14:42.700Z,0.70
2022-09-12T18:17:11.487Z,0.90
2022-09-12T18:19:38.768Z,0.70
2022-09-12T18:22:09.780Z,0.80
2022-09-12T18:24:36.838Z,1.10
2022-09-12T18:27:10.188Z,1.00
2022-09-12T18:29:37.335Z,1.10
2022-09-12T18:32:04.589Z,1.00
2022-09-12T18:34:31.838Z,1.00
2022-09-12T18:36:59.331Z,1.00
2022-09-12T18:39:27.932Z,1.00
2022-09-12T18:41:55.140Z,1.30
2022-09-12T18:44:22.178Z,1.50
2022-09-12T18:46:49.283Z,2.50
2022-09-12T18:49:16.302Z,1.20
2022-09-12T18:51:44.437Z,1.40
2022-09-12T18:54:13.021Z,1.50
2022-09-12T18:56:43.786Z,2.00
2022-09-12T18:59:15.567Z,1.70
2022-09-12T19:01:43.389Z,2.20
2022-09-12T19:04:11.345Z,1.90
2022-09-12T19:06:43.114Z,1.60
2022-09-12T19:09:10.595Z,1.80
2022-09-12T19:11:39.388Z,1.80
2022-09-12T19:14:07.047Z,2.00
2022-09-12T19:16:34.263Z,2.10
2022-09-12T19:19:03.713Z,1.80
2022-09-12T19:21:31.430Z,1.70
2022-09-12T19:24:14.964Z,1.90
2022-09-12T19:26:42.117Z,1.90
2022-09-12T19:29:09.492Z,1.90
2022-09-12T19:31:37.165Z,2.10
2022-09-12T19:34:06.119Z,1.60
2022-09-12T19:36:44.887Z,1.70
2022-09-12T19:39:13.219Z,2.20
2022-09-12T19:41:40.265Z,1.70
2022-09-12T19:44:07.446Z,1.60
2022-09-12T19:46:35.557Z,1.40
2022-09-12T19:49:02.744Z,1.10
2022-09-12T19:51:29.992Z,1.50
2022-09-12T19:53:57.054Z,1.30
2022-09-12T19:56:24.191Z,1.40
2022-09-12T19:58:56.936Z,1.40
2022-09-12T20:01:26.007Z,1.40
2022-09-12T20:03:54.137Z,1.60
2022-09-12T20:06:21.385Z,1.70
2022-09-12T20:08:48.662Z,2.00
2022-09-12T20:11:19.712Z,1.60
2022-09-12T20:13:46.933Z,2.10
2022-09-12T20:16:21.679Z,2.20
2022-09-12T20:18:56.181Z,2.00
2022-09-12T20:21:32.081Z,1.70
2022-09-12T20:24:04.509Z,1.90
2022-09-12T20:26:31.671Z,2.40
2022-09-12T20:28:59.116Z,2.10
2022-09-12T20:31:26.330Z,2.70
2022-09-12T20:33:53.464Z,2.50
2022-09-12T20:36:20.878Z,1.90
2022-09-12T20:38:49.804Z,2.20
2022-09-12T20:41:17.166Z,2.60
2022-09-12T20:43:44.265Z,2.50
2022-09-12T20:46:11.765Z,2.50
2022-09-12T20:48:39.181Z,2.90
2022-09-12T20:51:06.943Z,2.20
2022-09-12T20:53:35.216Z,2.40
2022-09-12T20:56:03.495Z,2.50
2022-09-12T20:58:30.443Z,2.80
2022-09-12T21:00:57.593Z,2.60
2022-09-12T21:03:25.566Z,2.40
2022-09-12T21:05:52.707Z,2.60
2022-09-12T21:08:19.859Z,2.50
2022-09-12T21:10:47.039Z,3.10
2022-09-12T21:13:14.257Z,2.70
2022-09-12T21:15:41.638Z,2.80
2022-09-12T21:18:08.862Z,2.10
2022-09-12T21:20:35.828Z,2.30
2022-09-12T21:23:03.061Z,2.60
2022-09-12T21:25:30.428Z,2.70
2022-09-12T21:27:57.602Z,2.70
2022-09-12T21:30:24.616Z,2.60
2022-09-12T21:32:52.005Z,2.40
2022-09-12T21:35:19.015Z,2.60
2022-09-12T21:37:46.297Z,2.10
2022-09-12T21:40:13.353Z,2.60
2022-09-12T21:42:40.479Z,2.60
2022-09-12T21:45:09.088Z,2.00
2022-09-12T21:47:40.912Z,2.30
2022-09-12T21:50:09.358Z,2.30
2022-09-12T21:52:37.055Z,2.00
2022-09-12T21:55:06.403Z,2.80
2022-09-12T21:57:34.438Z,2.00
2022-09-12T22:00:10.547Z,2.20
2022-09-12T22:02:37.632Z,2.20
2022-09-12T22:05:05.307Z,1.90
2022-09-12T22:07:32.447Z,1.50
2022-09-12T22:09:59.898Z,1.90
2022-09-12T22:12:28.069Z,2.30
2022-09-12T22:14:57.933Z,2.00
2022-09-12T22:17:25.030Z,1.90
2022-09-12T22:19:52.075Z,1.90
2022-09-12T22:22:37.861Z,2.00
2022-09-12T22:25:05.524Z,1.90
2022-09-12T22:27:32.468Z,2.10
2022-09-12T22:29:59.521Z,2.30
2022-09-12T22:32:26.563Z,2.20
2022-09-12T22:34:53.711Z,2.60
2022-09-12T22:37:21.066Z,2.00
2022-09-12T22:39:48.462Z,2.30
2022-09-12T22:42:15.467Z,2.30
2022-09-12T22:44:42.519Z,2.10
2022-09-12T22:47:09.561Z,2.80
2022-09-12T22:49:36.534Z,2.20
2022-09-12T22:52:03.557Z,2.00
2022-09-12T22:54:30.709Z,1.80
2022-09-12T22:56:57.750Z,1.90
2022-09-12T22:59:24.797Z,2.40
2022-09-12T23:01:51.844Z,1.80
2022-09-12T23:04:18.823Z,1.60
2022-09-12T23:06:45.940Z,1.80
2022-09-12T23:09:13.087Z,1.60
2022-09-12T23:11:40.262Z,1.70
2022-09-12T23:14:07.796Z,2.40
2022-09-12T23:16:35.551Z,1.80
2022-09-12T23:19:02.593Z,2.20
2022-09-12T23:21:30.371Z,2.20
2022-09-12T23:23:57.640Z,2.00
2022-09-12T23:26:25.900Z,2.10
2022-09-12T23:28:57.116Z,2.60
2022-09-12T23:31:25.769Z,3.40
2022-09-12T23:33:54.349Z,2.70
2022-09-12T23:36:22.592Z,2.60
2022-09-12T23:38:49.835Z,2.80
2022-09-12T23:41:17.605Z,2.80
2022-09-12T23:43:45.776Z,3.30
2022-09-12T23:46:13.707Z,2.70
2022-09-12T23:48:40.902Z,2.80
2022-09-12T23:51:07.941Z,2.60
2022-09-12T23:53:36.013Z,2.60
2022-09-12T23:56:03.504Z,3.00
2022-09-12T23:58:31.339Z,2.50
